Latest Weather Observations for Trangie

IDN60801

Issued at 5:32 pm EST Saturday 1 August 2015 (issued every 30 minutes, with the page automatically refreshed every 10 minutes)

About weather observations | Map of weather stations | Latest weather observations for NSW | Other Formats
Station Details ID: 051049 Name: TRANGIE RESEARCH STATION AWS Lat: -31.99 Lon: 147.95 Height: 215.0 m
Data from the previous 72 hours. | See also: Recent months at Trangie
Date/Time
EST
Temp
°C
App
Temp
°C
Dew
Point
Rel
Hum
%
Delta-T
°C
Wind Press
QNH
hPa
Press
MSL
hPa
Rain
since 9 am
mm
Dir
 
Spd
km/h
Gust
km/h
Spd
kts
Gust
kts
01/05:30pm 17.1 15.7 9.5 61 4.0 N 7 13 4 7 1017.9 1018.1 0.0
01/05:00pm 18.4 17.2 9.7 57 4.6 N 6 9 3 5 1018.0 1018.2 0.0
01/04:30pm 19.4 17.6 9.6 53 5.3 N 9 13 5 7 1017.8 1018.0 0.0
01/04:00pm 18.3 16.8 10.4 60 4.3 NNW 9 13 5 7 1018.0 1018.2 0.0
01/03:30pm 18.4 15.1 9.5 56 4.7 NNW 17 20 9 11 1018.3 1018.4 0.0
01/03:00pm 19.0 15.5 8.9 52 5.3 NNW 17 20 9 11 1018.3 1018.4 0.0
01/02:30pm 19.4 15.3 8.7 50 5.6 NNW 20 26 11 14 1018.3 1018.4 0.0
01/02:00pm 19.5 14.2 6.9 44 6.4 NNW 24 32 13 17 1018.5 1018.6 0.0
01/01:30pm 19.9 15.9 9.2 50 5.7 NNW 20 28 11 15 1018.7 1018.8 0.0
01/01:00pm 19.4 15.6 9.9 54 5.1 NNW 20 28 11 15 1019.1 1019.2 0.0
01/12:30pm 18.4 14.7 9.5 56 4.7 NNW 19 26 10 14 1019.4 1019.6 0.0
01/12:00pm 18.1 13.6 8.4 53 5.0 NNW 22 30 12 16 1019.8 1020.0 0.0
01/11:30am 17.5 13.7 8.9 57 4.5 N 19 28 10 15 1020.1 1020.3 0.0
01/11:00am 16.2 13.2 9.4 64 3.6 N 15 20 8 11 1020.6 1020.8 0.0
01/10:30am 14.4 10.3 7.9 65 3.3 N 19 26 10 14 1020.6 1020.8 0.0
01/10:00am 12.9 9.0 7.1 68 2.8 N 17 24 9 13 1020.8 1021.0 0.0
01/09:30am 11.3 8.1 6.8 74 2.2 N 13 19 7 10 1020.9 1021.2 0.0
01/09:00am 10.6 6.9 6.2 74 2.1 N 15 24 8 13 1021.3 1021.6 0.0
01/08:30am 9.8 6.4 6.0 77 1.8 N 13 17 7 9 1020.8 1021.1 0.0
01/08:00am 8.9 5.9 5.8 81 1.4 N 11 17 6 9 1020.7 1021.0 0.0
01/07:30am 8.2 5.4 5.1 81 1.4 N 9 15 5 8 1020.8 1021.1 0.0
01/07:00am 8.1 5.3 5.0 81 1.4 NNE 9 11 5 6 1020.4 1020.7 0.0
01/06:30am 7.9 5.0 4.8 81 1.4 NNE 9 13 5 7 1020.1 1020.4 0.0
01/06:00am 7.8 5.3 4.7 81 1.4 NNE 7 11 4 6 1019.8 1020.1 0.0
01/05:30am 7.9 5.4 4.8 81 1.4 NNE 7 11 4 6 1019.6 1019.9 0.0
01/05:00am 7.7 4.8 4.8 82 1.3 NNE 9 11 5 6 1019.6 1019.9 0.0
01/04:30am 7.3 4.0 4.4 82 1.3 NNE 11 13 6 7 1019.5 1019.8 0.0
01/04:00am 7.7 4.4 4.5 80 1.4 N 11 17 6 9 1019.9 1020.2 0.0
01/03:30am 7.7 4.4 4.5 80 1.4 NNE 11 15 6 8 1019.9 1020.2 0.0
01/03:00am 7.5 4.2 4.3 80 1.4 NNE 11 15 6 8 1020.2 1020.5 0.0
01/02:30am 7.5 4.6 4.6 82 1.3 NNE 9 13 5 7 1020.6 1020.9 0.0
01/02:00am 7.9 5.0 4.8 81 1.4 NNE 9 11 5 6 1021.0 1021.3 0.0
01/01:30am 8.1 5.3 5.0 81 1.4 NNE 9 13 5 7 1021.1 1021.4 0.0
01/01:00am 8.1 5.3 5.2 82 1.3 NE 9 13 5 7 1021.2 1021.5 0.0
01/12:30am 8.3 5.1 5.2 81 1.4 NE 11 13 6 7 1021.5 1021.8 0.0
01/12:00am 9.2 6.6 5.9 80 1.5 NNE 9 13 5 7 1021.7 1022.0 0.0
 
Date/Time
EST
Temp
°C
App
Temp
°C
Dew
Point
Rel
Hum
%
Delta-T
°C
Wind Press
QNH
hPa
Press
MSL
hPa
Rain
since 9 am
mm
Dir
 
Spd
km/h
Gust
km/h
Spd
kts
Gust
kts
31/11:30pm 8.7 6.0 5.4 80 1.5 NNE 9 11 5 6 1021.8 1022.1 0.0
31/11:00pm 8.5 5.8 5.4 81 1.4 NE 9 13 5 7 1022.0 1022.3 0.0
31/10:30pm 7.8 4.5 4.6 80 1.4 NE 11 11 6 6 1022.1 1022.5 0.0
31/10:00pm 9.1 6.0 5.5 78 1.6 NNE 11 13 6 7 1022.1 1022.5 0.0
31/09:30pm 9.4 6.4 5.8 78 1.7 NNE 11 13 6 7 1022.1 1022.5 0.0
31/09:00pm 8.9 6.5 5.3 78 1.6 NNE 7 9 4 5 1022.2 1022.6 0.0
31/08:30pm 9.4 7.0 5.4 76 1.8 NNE 7 9 4 5 1021.9 1022.2 0.0
31/08:00pm 9.5 7.3 6.0 79 1.6 NNE 7 11 4 6 1021.8 1022.1 0.0
31/07:30pm 9.4 7.1 5.9 79 1.6 NE 7 9 4 5 1021.8 1022.1 0.0
31/07:00pm 10.8 8.5 5.8 71 2.3 NNE 7 11 4 6 1021.6 1021.9 0.0
31/06:30pm 10.8 8.7 6.6 75 2.0 NE 7 9 4 5 1021.6 1021.9 0.0
31/06:00pm 11.6 9.4 6.3 70 2.5 NE 7 9 4 5 1021.4 1021.7 0.0
31/05:30pm 13.6 11.6 6.2 61 3.6 NE 6 9 3 5 1021.2 1021.5 0.0
31/05:00pm 15.2 14.1 6.7 57 4.2 NE 2 7 1 4 1021.1 1021.4 0.0
31/04:30pm 16.1 14.0 6.8 54 4.6 NNE 7 9 4 5 1021.0 1021.3 0.0
31/04:00pm 16.7 14.6 5.6 48 5.4 N 6 9 3 5 1021.1 1021.4 0.0
31/03:30pm 17.1 14.4 5.7 47 5.6 NNW 9 13 5 7 1021.1 1021.4 0.0
31/03:00pm 17.0 14.3 5.6 47 5.5 N 9 15 5 8 1020.9 1021.2 0.0
31/02:30pm 18.0 16.4 6.5 47 5.8 N 4 9 2 5 1021.0 1021.3 0.0
31/02:00pm 17.6 16.0 6.2 47 5.6 NE 4 9 2 5 1021.4 1021.7 0.0
31/01:30pm 17.0 16.0 5.6 47 5.6 CALM 0 4 0 2 1021.8 1022.1 0.0
31/01:00pm 17.4 16.7 6.9 50 5.3 CALM 0 4 0 2 1022.1 1022.5 0.0
31/12:30pm 16.4 15.1 6.2 51 5.0 N 2 7 1 4 1022.5 1022.9 0.0
31/12:00pm 15.4 13.4 6.1 54 4.5 SE 6 9 3 5 1022.8 1023.2 0.0
31/11:30am 14.7 12.7 6.3 57 4.1 W 6 13 3 7 1023.1 1023.4 0.0
31/11:00am 14.1 11.4 5.5 56 4.1 WSW 9 13 5 7 1023.3 1023.6 0.0
31/10:30am 14.1 12.0 8.1 67 3.0 NW 9 11 5 6 1023.3 1023.6 0.0
31/10:00am 12.8 10.1 7.3 69 2.7 NNW 11 15 6 8 1023.3 1023.6 0.0
31/09:30am 11.7 9.8 7.6 76 2.0 NNW 7 11 4 6 1023.1 1023.4 0.0
31/09:00am 9.8 7.8 7.1 83 1.3 NNW 7 11 4 6 1022.9 1023.3 0.0
31/08:30am 8.5 6.0 6.5 87 0.9 N 9 13 5 7 1022.7 1023.1 0.0
31/08:00am 7.5 4.9 6.1 91 0.6 N 9 11 5 6 1022.6 1023.0 0.0
31/07:30am 6.0 3.3 5.6 97 0.2 N 9 11 5 6 1022.2 1022.6 0.0
31/07:00am 4.8 2.2 4.2 96 0.3 N 7 11 4 6 1021.9 1022.2 0.0
31/06:30am 5.2 2.7 4.9 98 0.1 N 7 9 4 5 1021.5 1021.8 0.0
31/06:00am 4.7 2.2 4.6 99 0.0 N 7 9 4 5 1021.3 1021.6 0.0
31/05:30am 5.4 2.9 5.0 97 0.2 N 7 9 4 5 1021.4 1021.7 0.0
31/05:00am 6.3 3.9 5.4 94 0.4 N 7 9 4 5 1021.3 1021.6 0.0
31/04:30am 6.5 3.7 5.3 92 0.5 N 9 11 5 6 1021.3 1021.6 0.0
31/04:00am 6.8 4.2 5.9 94 0.4 N 9 11 5 6 1021.6 1021.9 0.0
31/03:30am 6.2 3.9 5.0 92 0.5 N 6 9 3 5 1021.7 1022.0 0.0
31/03:00am 7.8 5.8 6.1 89 0.8 N 6 7 3 4 1021.8 1022.1 0.0
31/02:30am 8.1 5.9 6.4 89 0.8 N 7 11 4 6 1022.0 1022.3 0.0
31/02:00am 7.5 5.2 5.8 89 0.8 N 7 11 4 6 1022.2 1022.6 0.0
31/01:30am 8.2 6.1 6.7 90 0.7 N 7 9 4 5 1022.2 1022.6 0.0
31/01:00am 8.1 6.5 6.4 89 0.8 N 4 7 2 4 1022.2 1022.6 0.0
31/12:30am 8.8 6.6 6.4 85 1.1 N 7 11 4 6 1022.1 1022.5 0.0
31/12:00am 8.8 6.8 6.4 85 1.1 N 6 9 3 5 1022.2 1022.6 0.0
 
Date/Time
EST
Temp
°C
App
Temp
°C
Dew
Point
Rel
Hum
%
Delta-T
°C
Wind Press
QNH
hPa
Press
MSL
hPa
Rain
since 9 am
mm
Dir
 
Spd
km/h
Gust
km/h
Spd
kts
Gust
kts
30/11:30pm 9.5 7.4 6.8 83 1.3 N 7 11 4 6 1022.2 1022.6 0.0
30/11:00pm 8.0 6.7 6.0 87 0.9 N 2 7 1 4 1022.5 1022.9 0.0
30/10:30pm 9.3 6.5 6.9 85 1.1 NNE 11 13 6 7 1022.3 1022.7 0.0
30/10:00pm 9.2 6.8 6.8 85 1.1 NNE 9 13 5 7 1022.5 1022.9 0.0
30/09:30pm 9.0 6.6 7.0 87 0.9 N 9 11 5 6 1022.6 1023.0 0.0
30/09:00pm 10.1 8.0 6.6 79 1.7 N 7 11 4 6 1022.6 1023.0 0.0
30/08:30pm 9.9 7.8 6.8 81 1.5 NNE 7 11 4 6 1022.5 1022.9 0.0
30/08:00pm 10.1 7.7 7.0 81 1.5 NNE 9 11 5 6 1022.5 1022.9 0.0
30/07:30pm 9.5 7.4 6.6 82 1.4 N 7 9 4 5 1022.6 1023.0 0.0
30/07:00pm 9.9 7.9 6.2 78 1.7 NNW 6 7 3 4 1023.1 1023.4 0.0
30/06:30pm 10.4 8.4 6.9 79 1.7 N 7 11 4 6 1022.7 1023.1 0.0
30/06:00pm 10.1 7.7 6.8 80 1.6 NW 9 11 5 6 1022.9 1023.3 0.0
30/05:30pm 11.2 8.1 7.1 76 2.0 NNW 13 15 7 8 1022.6 1023.0 0.0
30/05:00pm 12.0 8.9 7.3 73 2.3 NNW 13 17 7 9 1022.7 1023.1 0.0
30/04:30pm 13.5 9.7 7.5 67 3.0 NNW 17 20 9 11 1023.1 1023.4 0.0
30/04:00pm 14.4 10.2 7.5 63 3.4 NNW 19 26 10 14 1023.1 1023.4 0.0
30/03:30pm 15.2 10.8 7.5 60 3.9 NNW 20 28 11 15 1023.5 1023.8 0.0
30/03:00pm 15.5 11.2 7.8 60 3.9 NNW 20 26 11 14 1023.9 1024.2 0.0
30/02:30pm 15.6 10.9 7.6 59 4.0 NNW 22 30 12 16 1024.2 1024.5 0.0
30/02:00pm 15.3 10.6 6.1 54 4.5 NNW 20 28 11 15 1024.5 1024.8 0.0
30/01:30pm 15.5 10.4 6.2 54 4.5 NNW 22 30 12 16 1025.3 1025.6 0.0
30/01:00pm 15.2 10.5 6.2 55 4.4 NNW 20 28 11 15 1025.5 1025.8 0.0
30/12:30pm 14.5 9.1 6.3 58 4.0 NNW 24 35 13 19 1025.9 1026.2 0.0
30/12:00pm 14.3 9.7 5.7 56 4.1 N 19 26 10 14 1026.3 1026.7 0.0
30/11:30am 14.1 9.7 6.5 60 3.7 N 19 24 10 13 1026.7 1027.1 0.0
30/11:00am 13.7 10.4 7.9 68 2.9 N 15 22 8 12 1027.3 1027.7 0.0
30/10:30am 12.5 9.0 7.0 69 2.7 N 15 20 8 11 1027.7 1028.1 0.0
30/10:00am 11.8 8.7 7.1 73 2.3 N 13 20 7 11 1027.9 1028.2 0.0
30/09:30am 10.0 7.1 6.3 78 1.7 N 11 17 6 9 1027.9 1028.2 0.0
30/09:00am 8.3 5.1 5.2 81 1.4 NNE 11 17 6 9 1028.1 1028.4 0.0
30/08:30am 6.5 3.7 5.3 92 0.5 NE 9 13 5 7 1028.3 1028.6 0.0
30/08:00am 4.2 1.2 4.1 99 0.0 NE 9 11 5 6 1028.1 1028.4 0.0
30/07:30am 3.0 0.2 2.9 99 0.0 NE 7 11 4 6 1027.9 1028.2 0.0
30/07:00am 2.2 -1.2 2.1 99 0.0 NE 9 11 5 6 1027.6 1028.0 0.0
30/06:30am 1.3 -2.2 1.2 99 0.0 ENE 9 11 5 6 1027.3 1027.7 0.0
30/06:00am 0.9 -2.1 0.8 99 0.0 NE 6 7 3 4 1027.2 1027.6 0.0
30/05:30am 1.9 -1.1 1.8 99 0.0 NE 7 9 4 5 1027.0 1027.4 0.0
30/05:00am 1.3 -1.9 1.0 98 0.1 ENE 7 9 4 5 1027.0 1027.4 0.0
30/04:30am 1.9 -0.9 1.8 99 0.0 NE 6 7 3 4 1027.2 1027.6 0.0
30/04:00am 2.4 0.4 2.1 98 0.1 ENE 2 7 1 4 1027.5 1027.9 0.0
30/03:30am 2.7 1.1 2.3 97 0.2 CALM 0 0 0 0 1028.0 1028.3 0.0
30/03:00am 3.2 1.1 1.9 91 0.5 ENE 2 6 1 3 1028.0 1028.3 0.0
30/02:30am 4.7 1.7 4.3 97 0.2 ENE 9 13 5 7 1028.1 1028.4 0.0
30/02:00am 3.1 1.1 2.5 96 0.2 ENE 2 6 1 3 1028.6 1028.9 0.0
30/01:30am 3.1 1.6 2.8 98 0.1 CALM 0 2 0 1 1028.8 1029.1 0.0
30/01:00am 4.3 1.8 3.7 96 0.3 ENE 6 9 3 5 1028.7 1029.0 0.0
30/12:30am 4.4 3.0 3.5 94 0.4 CALM 0 0 0 0 1028.9 1029.2 0.0
30/12:00am 4.1 2.6 2.9 92 0.5 CALM 0 0 0 0 1029.4 1029.7 0.0
 
Date/Time
EST
Temp
°C
App
Temp
°C
Dew
Point
Rel
Hum
%
Delta-T
°C
Wind Press
QNH
hPa
Press
MSL
hPa
Rain
since 9 am
mm
Dir
 
Spd
km/h
Gust
km/h
Spd
kts
Gust
kts
29/11:30pm 4.7 3.0 3.8 94 0.4 ENE 2 9 1 5 1029.3 1029.6 0.0
29/11:00pm 5.2 2.8 4.2 93 0.4 NE 6 7 3 4 1029.5 1029.8 0.0
29/10:30pm 5.5 4.2 4.3 92 0.5 CALM 0 0 0 0 1030.1 1030.5 0.0
29/10:00pm 6.0 3.5 4.0 87 0.9 N 6 7 3 4 1029.8 1030.1 0.0
29/09:30pm 6.8 5.7 5.1 89 0.8 CALM 0 0 0 0 1029.9 1030.3 0.0
29/09:00pm 6.6 5.5 4.9 89 0.7 CALM 0 0 0 0 1030.3 1030.7 0.0
29/08:30pm 7.2 6.3 6.0 92 0.5 CALM 0 0 0 0 1030.3 1030.7 0.0
29/08:00pm 6.9 5.8 4.9 87 0.9 CALM 0 0 0 0 1030.5 1030.9 0.0
29/07:30pm 6.9 5.8 4.9 87 0.9 CALM 0 0 0 0 1030.4 1030.8 0.0
29/07:00pm 6.9 5.7 4.4 84 1.1 CALM 0 0 0 0 1030.2 1030.6 0.0
29/06:30pm 8.5 7.4 5.1 79 1.5 CALM 0 0 0 0 1029.6 1029.9 0.0
29/06:00pm 8.5 7.2 3.9 73 2.0 CALM 0 0 0 0 1029.9 1030.3 0.0

Other Formats:

Comma delimited format used in spreadsheet applications
http://www.bom.gov.au/fwo/IDN60801/IDN60801.95710.axf

JavaScript Object Notation format (JSON) in row-major order
http://www.bom.gov.au/fwo/IDN60801/IDN60801.95710.json